createdAt,value
2023-05-01T00:00:22.181Z,524.00
2023-05-01T00:01:22.125Z,536.00
2023-05-01T00:02:22.224Z,524.00
2023-05-01T00:03:22.270Z,545.00
2023-05-01T00:04:22.229Z,537.00
2023-05-01T00:05:22.232Z,520.00
2023-05-01T00:06:22.263Z,550.00
2023-05-01T00:07:22.298Z,543.00
2023-05-01T00:08:22.288Z,525.00
2023-05-01T00:09:22.321Z,524.00
2023-05-01T00:10:22.358Z,532.00
2023-05-01T00:11:22.367Z,526.00
2023-05-01T00:12:22.395Z,528.00
2023-05-01T00:13:22.429Z,535.00
2023-05-01T00:14:22.463Z,539.00
2023-05-01T00:15:22.503Z,527.00
2023-05-01T00:16:22.551Z,532.00
2023-05-01T00:17:22.573Z,528.00
2023-05-01T00:18:22.580Z,535.00
2023-05-01T00:19:22.612Z,538.00
2023-05-01T00:20:22.635Z,524.00
2023-05-01T00:21:22.649Z,529.00
2023-05-01T00:22:22.671Z,538.00
2023-05-01T00:23:22.804Z,523.00
2023-05-01T00:24:22.756Z,536.00
2023-05-01T00:25:22.772Z,536.00
2023-05-01T00:26:22.762Z,546.00
2023-05-01T00:27:22.831Z,548.00
2023-05-01T00:28:22.860Z,530.00
2023-05-01T00:29:22.848Z,531.00
2023-05-01T00:30:22.904Z,543.00
2023-05-01T00:31:22.936Z,534.00
2023-05-01T00:32:22.964Z,532.00
2023-05-01T00:33:22.951Z,535.00
2023-05-01T00:34:23.001Z,537.00
2023-05-01T00:35:23.025Z,525.00
2023-05-01T00:36:23.039Z,536.00
2023-05-01T00:37:23.457Z,536.00
2023-05-01T00:38:23.094Z,535.00
2023-05-01T00:39:23.131Z,532.00
2023-05-01T00:40:23.129Z,542.00
2023-05-01T00:41:23.165Z,540.00
2023-05-01T00:42:23.208Z,537.00
2023-05-01T00:43:23.217Z,536.00
2023-05-01T00:44:23.248Z,540.00
2023-05-01T00:45:23.295Z,547.00
2023-05-01T00:46:23.366Z,534.00
2023-05-01T00:47:23.396Z,536.00
2023-05-01T00:48:23.349Z,544.00
2023-05-01T00:49:23.385Z,535.00
2023-05-01T00:50:23.417Z,527.00
2023-05-01T00:51:23.452Z,537.00
2023-05-01T00:52:23.467Z,542.00
2023-05-01T00:53:23.482Z,530.00
2023-05-01T00:54:23.490Z,539.00
2023-05-01T00:55:23.563Z,526.00
2023-05-01T00:56:23.604Z,532.00
2023-05-01T00:57:23.968Z,526.00
2023-05-01T00:58:23.622Z,535.00
2023-05-01T00:59:23.654Z,537.00
2023-05-01T01:00:23.669Z,535.00
2023-05-01T01:01:23.758Z,530.00
2023-05-01T01:02:23.769Z,536.00
2023-05-01T01:03:23.770Z,538.00
2023-05-01T01:04:23.820Z,524.00
2023-05-01T01:05:23.831Z,528.00
2023-05-01T01:06:23.947Z,524.00
2023-05-01T01:07:23.858Z,525.00
2023-05-01T01:08:23.875Z,538.00
2023-05-01T01:09:23.913Z,536.00
2023-05-01T01:10:23.911Z,536.00
2023-05-01T01:11:23.929Z,522.00
2023-05-01T01:12:23.994Z,540.00
2023-05-01T01:13:23.990Z,542.00
2023-05-01T01:14:24.030Z,530.00
2023-05-01T01:15:24.053Z,527.00
2023-05-01T01:16:24.142Z,530.00
2023-05-01T01:17:24.185Z,538.00
2023-05-01T01:18:24.175Z,536.00
2023-05-01T01:19:24.128Z,533.00
2023-05-01T01:20:24.143Z,536.00
2023-05-01T01:21:24.211Z,522.00
2023-05-01T01:22:24.240Z,528.00
2023-05-01T01:23:24.224Z,527.00
2023-05-01T01:24:24.271Z,535.00
2023-05-01T01:25:24.287Z,533.00
2023-05-01T01:26:24.310Z,522.00
2023-05-01T01:27:24.343Z,540.00
2023-05-01T01:28:24.348Z,531.00
2023-05-01T01:29:24.396Z,527.00
2023-05-01T01:30:24.415Z,528.00
2023-05-01T01:31:24.490Z,528.00
2023-05-01T01:32:24.514Z,531.00
2023-05-01T01:33:24.490Z,527.00
2023-05-01T01:34:24.507Z,530.00
2023-05-01T01:35:24.529Z,525.00
2023-05-01T01:36:24.550Z,532.00
2023-05-01T01:37:24.607Z,536.00
2023-05-01T01:38:24.630Z,523.00
2023-05-01T01:39:24.644Z,531.00
2023-05-01T01:40:24.681Z,525.00
2023-05-01T01:41:24.685Z,530.00
2023-05-01T01:42:24.965Z,538.00
2023-05-01T01:43:25.442Z,533.00
2023-05-01T01:44:24.762Z,537.00
2023-05-01T01:45:24.820Z,520.00
2023-05-01T01:46:24.845Z,538.00
2023-05-01T01:47:24.886Z,522.00
2023-05-01T01:48:24.905Z,547.00
2023-05-01T01:49:24.937Z,527.00
2023-05-01T01:50:24.973Z,523.00
2023-05-01T01:51:24.975Z,530.00
2023-05-01T01:52:25.007Z,536.00
2023-05-01T01:53:25.027Z,536.00
2023-05-01T01:54:25.036Z,525.00
2023-05-01T01:55:25.064Z,517.00
2023-05-01T01:56:25.093Z,526.00
2023-05-01T01:57:25.180Z,526.00
2023-05-01T01:58:25.150Z,532.00
2023-05-01T01:59:25.264Z,534.00
2023-05-01T02:00:25.252Z,532.00
2023-05-01T02:01:25.347Z,535.00
2023-05-01T02:02:25.361Z,528.00
2023-05-01T02:03:25.371Z,523.00
2023-05-01T02:04:25.343Z,530.00
2023-05-01T02:05:25.355Z,525.00
2023-05-01T02:06:25.444Z,530.00
2023-05-01T02:07:35.966Z,540.00
2023-05-01T02:08:25.416Z,541.00
2023-05-01T02:09:25.398Z,541.00
2023-05-01T02:10:25.487Z,533.00
2023-05-01T02:11:25.399Z,542.00
2023-05-01T02:12:25.435Z,530.00
2023-05-01T02:13:25.397Z,540.00
2023-05-01T02:14:25.354Z,520.00
2023-05-01T02:15:25.344Z,530.00
2023-05-01T02:16:25.454Z,530.00
2023-05-01T02:17:25.368Z,529.00
2023-05-01T02:18:25.336Z,528.00
2023-05-01T02:19:25.302Z,530.00
2023-05-01T02:20:25.324Z,529.00
2023-05-01T02:21:25.306Z,529.00
2023-05-01T02:22:25.480Z,535.00
2023-05-01T02:23:25.291Z,527.00
2023-05-01T02:24:25.277Z,530.00
2023-05-01T02:25:25.268Z,536.00
2023-05-01T02:26:25.289Z,535.00
2023-05-01T02:27:25.285Z,525.00
2023-05-01T02:28:25.256Z,536.00
2023-05-01T02:29:25.234Z,530.00
2023-05-01T02:30:25.251Z,531.00
2023-05-01T02:31:25.391Z,527.00
2023-05-01T02:32:25.300Z,533.00
2023-05-01T02:33:25.227Z,538.00
2023-05-01T02:34:25.238Z,537.00
2023-05-01T02:35:25.189Z,527.00
2023-05-01T02:36:25.220Z,522.00
2023-05-01T02:37:25.231Z,533.00
2023-05-01T02:38:25.225Z,527.00
2023-05-01T02:39:25.267Z,536.00
2023-05-01T02:40:25.276Z,528.00
2023-05-01T02:41:25.303Z,526.00
2023-05-01T02:42:25.316Z,529.00
2023-05-01T02:43:25.340Z,533.00
2023-05-01T02:44:25.357Z,529.00
2023-05-01T02:45:25.441Z,532.00
2023-05-01T02:46:25.527Z,528.00
2023-05-01T02:47:25.525Z,528.00
2023-05-01T02:48:25.480Z,527.00
2023-05-01T02:49:25.501Z,531.00
2023-05-01T02:50:25.527Z,526.00
2023-05-01T02:51:25.571Z,534.00
2023-05-01T02:52:25.621Z,525.00
2023-05-01T02:53:25.650Z,536.00
2023-05-01T02:54:25.668Z,528.00
2023-05-01T02:55:25.683Z,528.00
2023-05-01T02:56:25.729Z,526.00
2023-05-01T02:57:25.745Z,525.00
2023-05-01T02:58:25.789Z,532.00
2023-05-01T02:59:25.825Z,532.00
2023-05-01T03:00:25.860Z,537.00
2023-05-01T03:01:25.986Z,517.00
2023-05-01T03:02:25.902Z,528.00
2023-05-01T03:03:25.926Z,532.00
2023-05-01T03:04:26.026Z,526.00
2023-05-01T03:05:26.038Z,526.00
2023-05-01T03:06:26.135Z,526.00
2023-05-01T03:07:26.075Z,528.00
2023-05-01T03:08:26.096Z,521.00
2023-05-01T03:09:26.116Z,530.00
2023-05-01T03:10:26.131Z,517.00
2023-05-01T03:11:26.523Z,530.00
2023-05-01T03:12:26.232Z,524.00
2023-05-01T03:13:26.218Z,534.00
2023-05-01T03:14:26.222Z,518.00
2023-05-01T03:15:26.290Z,530.00
2023-05-01T03:16:26.323Z,530.00
2023-05-01T03:17:26.438Z,532.00
2023-05-01T03:18:26.340Z,534.00
2023-05-01T03:19:26.389Z,527.00
2023-05-01T03:20:27.543Z,524.00
2023-05-01T03:21:26.498Z,527.00
2023-05-01T03:22:26.502Z,522.00
2023-05-01T03:23:26.508Z,535.00
2023-05-01T03:24:26.542Z,529.00
2023-05-01T03:25:26.573Z,524.00
2023-05-01T03:26:26.667Z,528.00
2023-05-01T03:27:27.040Z,527.00
2023-05-01T03:28:27.501Z,524.00
2023-05-01T03:29:26.712Z,536.00
2023-05-01T03:30:26.737Z,527.00
2023-05-01T03:31:26.805Z,526.00
2023-05-01T03:32:26.922Z,535.00
2023-05-01T03:33:26.861Z,529.00
2023-05-01T03:34:26.860Z,529.00
2023-05-01T03:35:26.986Z,533.00
2023-05-01T03:36:26.933Z,536.00
2023-05-01T03:37:26.980Z,530.00
2023-05-01T03:38:26.984Z,536.00
2023-05-01T03:39:27.031Z,519.00
2023-05-01T03:40:27.067Z,530.00
2023-05-01T03:41:27.096Z,533.00
2023-05-01T03:42:27.151Z,526.00
2023-05-01T03:43:27.125Z,521.00
2023-05-01T03:44:27.176Z,526.00
2023-05-01T03:45:27.212Z,521.00
2023-05-01T03:46:27.289Z,519.00
2023-05-01T03:47:27.354Z,524.00
2023-05-01T03:48:27.315Z,523.00
2023-05-01T03:49:27.386Z,515.00
2023-05-01T03:50:27.371Z,532.00
2023-05-01T03:51:27.430Z,517.00
2023-05-01T03:52:27.487Z,533.00
2023-05-01T03:53:27.495Z,529.00
2023-05-01T03:54:27.551Z,527.00
2023-05-01T03:55:27.554Z,526.00
2023-05-01T03:56:27.606Z,528.00
2023-05-01T03:57:27.650Z,529.00
2023-05-01T03:58:27.700Z,536.00
2023-05-01T03:59:27.716Z,527.00
2023-05-01T04:00:27.729Z,535.00
2023-05-01T04:01:27.802Z,528.00
2023-05-01T04:02:27.966Z,523.00
2023-05-01T04:03:27.922Z,530.00
2023-05-01T04:04:27.898Z,529.00
2023-05-01T04:05:27.912Z,523.00
2023-05-01T04:06:28.052Z,521.00
2023-05-01T04:07:27.991Z,512.00
2023-05-01T04:08:28.051Z,532.00
2023-05-01T04:09:28.018Z,529.00
2023-05-01T04:10:28.074Z,520.00
2023-05-01T04:11:28.086Z,536.00
2023-05-01T04:12:28.126Z,533.00
2023-05-01T04:13:28.158Z,525.00
2023-05-01T04:14:28.222Z,523.00
2023-05-01T04:15:28.276Z,515.00
2023-05-01T04:16:28.369Z,528.00
2023-05-01T04:17:28.359Z,531.00
2023-05-01T04:18:28.341Z,522.00
2023-05-01T04:19:28.402Z,520.00
2023-05-01T04:20:28.442Z,516.00
2023-05-01T04:21:28.478Z,535.00
2023-05-01T04:22:28.555Z,531.00
2023-05-01T04:23:28.650Z,533.00
2023-05-01T04:24:28.588Z,515.00
2023-05-01T04:25:28.669Z,525.00
2023-05-01T04:26:28.647Z,529.00
2023-05-01T04:27:28.686Z,533.00
2023-05-01T04:28:28.729Z,535.00
2023-05-01T04:29:28.765Z,517.00
2023-05-01T04:30:28.786Z,521.00
2023-05-01T04:31:28.889Z,531.00
2023-05-01T04:32:28.889Z,535.00
2023-05-01T04:33:28.987Z,521.00
2023-05-01T04:34:28.944Z,529.00
2023-05-01T04:35:28.998Z,517.00
2023-05-01T04:36:29.018Z,526.00
2023-05-01T04:37:29.071Z,527.00
2023-05-01T04:38:29.104Z,524.00
2023-05-01T04:39:29.146Z,524.00
2023-05-01T04:40:29.157Z,524.00
2023-05-01T04:41:29.194Z,530.00
2023-05-01T04:42:29.213Z,522.00
2023-05-01T04:43:29.264Z,532.00
2023-05-01T04:44:29.327Z,513.00
2023-05-01T04:45:29.325Z,533.00
2023-05-01T04:46:29.439Z,516.00
2023-05-01T04:47:29.428Z,516.00
2023-05-01T04:48:29.478Z,534.00
2023-05-01T04:49:29.496Z,528.00
2023-05-01T04:50:29.512Z,525.00
2023-05-01T04:51:29.605Z,526.00
2023-05-01T04:52:29.659Z,524.00
2023-05-01T04:53:29.630Z,529.00
2023-05-01T04:54:29.687Z,522.00
2023-05-01T04:55:31.118Z,520.00
2023-05-01T04:56:29.730Z,531.00
2023-05-01T04:57:29.774Z,512.00
2023-05-01T04:58:29.797Z,531.00
2023-05-01T04:59:29.870Z,517.00
2023-05-01T05:00:29.873Z,528.00
2023-05-01T05:01:30.082Z,533.00
2023-05-01T05:02:29.993Z,526.00
2023-05-01T05:03:30.057Z,526.00
2023-05-01T05:04:30.015Z,514.00
2023-05-01T05:05:30.068Z,520.00
2023-05-01T05:06:30.118Z,526.00
2023-05-01T05:07:30.123Z,524.00
2023-05-01T05:08:30.131Z,526.00
2023-05-01T05:09:30.182Z,528.00
2023-05-01T05:10:30.213Z,529.00
2023-05-01T05:11:30.325Z,519.00
2023-05-01T05:12:30.310Z,521.00
2023-05-01T05:13:30.386Z,523.00
2023-05-01T05:14:30.369Z,535.00
2023-05-01T05:15:30.406Z,515.00
2023-05-01T05:16:30.510Z,508.00
2023-05-01T05:17:30.531Z,520.00
2023-05-01T05:18:30.523Z,513.00
2023-05-01T05:19:30.576Z,524.00
2023-05-01T05:20:30.624Z,513.00
2023-05-01T05:21:30.652Z,515.00
2023-05-01T05:22:31.052Z,526.00
2023-05-01T05:23:30.727Z,519.00
2023-05-01T05:24:30.757Z,516.00
2023-05-01T05:25:30.803Z,528.00
2023-05-01T05:26:30.838Z,526.00
2023-05-01T05:27:31.091Z,516.00
2023-05-01T05:28:30.895Z,515.00
2023-05-01T05:29:30.922Z,515.00
2023-05-01T05:30:30.992Z,524.00
2023-05-01T05:31:31.052Z,528.00
2023-05-01T05:32:31.199Z,512.00
2023-05-01T05:33:31.105Z,529.00
2023-05-01T05:34:31.174Z,516.00
2023-05-01T05:35:31.182Z,519.00
2023-05-01T05:36:31.288Z,528.00
2023-05-01T05:37:31.275Z,522.00
2023-05-01T05:38:31.304Z,512.00
2023-05-01T05:39:31.352Z,526.00
2023-05-01T05:40:31.380Z,528.00
2023-05-01T05:41:31.402Z,517.00
2023-05-01T05:42:31.435Z,515.00
2023-05-01T05:43:31.467Z,513.00
2023-05-01T05:44:31.508Z,521.00
2023-05-01T05:45:31.528Z,526.00
2023-05-01T05:46:31.698Z,531.00
2023-05-01T05:47:31.600Z,519.00
2023-05-01T05:48:31.674Z,520.00
2023-05-01T05:49:31.654Z,526.00
2023-05-01T05:50:31.711Z,520.00
2023-05-01T05:51:31.744Z,519.00
2023-05-01T05:52:31.774Z,529.00
2023-05-01T05:53:31.780Z,507.00
2023-05-01T05:54:31.832Z,519.00
2023-05-01T05:55:31.858Z,526.00
2023-05-01T05:56:31.885Z,530.00
2023-05-01T05:57:31.964Z,525.00
2023-05-01T05:58:31.984Z,524.00
2023-05-01T05:59:31.993Z,523.00
2023-05-01T06:00:32.041Z,521.00
2023-05-01T06:01:32.096Z,522.00
2023-05-01T06:02:32.327Z,522.00
2023-05-01T06:03:32.201Z,528.00
2023-05-01T06:04:32.155Z,527.00
2023-05-01T06:05:32.221Z,513.00
2023-05-01T06:06:32.259Z,523.00
2023-05-01T06:07:32.265Z,517.00
2023-05-01T06:08:32.318Z,515.00
2023-05-01T06:09:32.321Z,529.00
2023-05-01T06:10:32.363Z,518.00
2023-05-01T06:11:32.407Z,523.00
2023-05-01T06:12:32.440Z,525.00
2023-05-01T06:13:32.459Z,523.00
2023-05-01T06:14:32.461Z,517.00
2023-05-01T06:15:32.592Z,514.00
2023-05-01T06:16:32.731Z,529.00
2023-05-01T06:17:32.588Z,517.00
2023-05-01T06:18:32.657Z,514.00
2023-05-01T06:19:32.638Z,510.00
2023-05-01T06:20:32.708Z,517.00
2023-05-01T06:21:32.720Z,509.00
2023-05-01T06:22:33.094Z,523.00
2023-05-01T06:23:32.899Z,523.00
2023-05-01T06:24:32.822Z,524.00
2023-05-01T06:25:32.838Z,525.00
2023-05-01T06:26:32.934Z,524.00
2023-05-01T06:27:32.926Z,527.00
2023-05-01T06:28:32.950Z,521.00
2023-05-01T06:29:32.977Z,520.00
2023-05-01T06:30:33.005Z,530.00
2023-05-01T06:31:33.117Z,524.00
2023-05-01T06:32:33.122Z,520.00
2023-05-01T06:33:33.138Z,521.00
2023-05-01T06:34:33.169Z,514.00
2023-05-01T06:35:33.189Z,517.00
2023-05-01T06:36:33.224Z,516.00
2023-05-01T06:37:33.272Z,511.00
2023-05-01T06:38:33.292Z,519.00
2023-05-01T06:39:33.301Z,509.00
2023-05-01T06:40:33.375Z,522.00
2023-05-01T06:41:33.390Z,517.00
2023-05-01T06:42:33.406Z,524.00
2023-05-01T06:43:33.428Z,517.00
2023-05-01T06:44:33.460Z,526.00
2023-05-01T06:45:33.477Z,519.00
2023-05-01T06:46:33.590Z,515.00
2023-05-01T06:47:33.658Z,527.00
2023-05-01T06:48:33.662Z,527.00
2023-05-01T06:49:33.644Z,517.00
2023-05-01T06:50:33.675Z,528.00
2023-05-01T06:51:33.690Z,522.00
2023-05-01T06:52:33.720Z,513.00
2023-05-01T06:53:33.726Z,522.00
2023-05-01T06:54:33.781Z,517.00
2023-05-01T06:55:35.284Z,522.00
2023-05-01T06:56:33.826Z,511.00
2023-05-01T06:57:33.873Z,509.00
2023-05-01T06:58:33.872Z,515.00
2023-05-01T06:59:33.927Z,522.00
2023-05-01T07:00:33.954Z,519.00
2023-05-01T07:01:35.639Z,520.00
2023-05-01T07:02:34.125Z,517.00
2023-05-01T07:03:34.091Z,525.00
2023-05-01T07:04:34.070Z,516.00
2023-05-01T07:05:34.161Z,519.00
2023-05-01T07:06:34.205Z,515.00
2023-05-01T07:07:34.193Z,510.00
2023-05-01T07:08:34.277Z,523.00
2023-05-01T07:09:34.235Z,517.00
2023-05-01T07:10:34.299Z,512.00
2023-05-01T07:11:34.304Z,517.00
2023-05-01T07:12:34.337Z,515.00
2023-05-01T07:13:34.348Z,510.00
2023-05-01T07:14:34.377Z,527.00
2023-05-01T07:15:34.409Z,517.00
2023-05-01T07:16:34.538Z,515.00
2023-05-01T07:17:34.638Z,519.00
2023-05-01T07:18:34.514Z,533.00
2023-05-01T07:19:34.591Z,517.00
2023-05-01T07:20:34.606Z,513.00
2023-05-01T07:21:34.590Z,510.00
2023-05-01T07:22:34.705Z,525.00
2023-05-01T07:23:34.635Z,525.00
2023-05-01T07:24:34.676Z,515.00
2023-05-01T07:25:34.670Z,518.00
2023-05-01T07:26:34.716Z,523.00
2023-05-01T07:27:34.740Z,529.00
2023-05-01T07:28:34.806Z,520.00
2023-05-01T07:29:34.805Z,515.00
2023-05-01T07:30:34.826Z,518.00
2023-05-01T07:31:34.896Z,511.00
2023-05-01T07:32:34.991Z,516.00
2023-05-01T07:33:34.888Z,519.00
2023-05-01T07:34:34.931Z,513.00
2023-05-01T07:35:35.047Z,523.00
2023-05-01T07:36:35.642Z,515.00
2023-05-01T07:37:35.060Z,528.00
2023-05-01T07:38:35.128Z,521.00
2023-05-01T07:39:35.103Z,508.00
2023-05-01T07:40:35.160Z,523.00
2023-05-01T07:41:35.201Z,518.00
2023-05-01T07:42:35.201Z,522.00
2023-05-01T07:43:35.380Z,519.00
2023-05-01T07:44:35.246Z,517.00
2023-05-01T07:45:35.354Z,518.00
2023-05-01T07:46:35.435Z,516.00
2023-05-01T07:47:35.408Z,522.00
2023-05-01T07:48:36.956Z,516.00
2023-05-01T07:49:35.392Z,524.00
2023-05-01T07:50:35.444Z,517.00
2023-05-01T07:51:35.353Z,519.00
2023-05-01T07:52:35.403Z,523.00
2023-05-01T07:53:35.384Z,512.00
2023-05-01T07:54:35.323Z,527.00
2023-05-01T07:55:35.351Z,522.00
2023-05-01T07:56:35.317Z,513.00
2023-05-01T07:57:35.342Z,522.00
2023-05-01T07:58:35.300Z,522.00
2023-05-01T07:59:35.301Z,510.00
2023-05-01T08:00:35.307Z,519.00
2023-05-01T08:01:35.275Z,516.00
2023-05-01T08:02:35.382Z,515.00
2023-05-01T08:03:35.366Z,510.00
2023-05-01T08:04:35.303Z,509.00
2023-05-01T08:05:35.244Z,515.00
2023-05-01T08:06:35.279Z,511.00
2023-05-01T08:07:35.238Z,515.00
2023-05-01T08:08:35.240Z,518.00
2023-05-01T08:09:35.215Z,511.00
2023-05-01T08:10:35.231Z,522.00
2023-05-01T08:11:35.221Z,517.00
2023-05-01T08:12:35.223Z,521.00
2023-05-01T08:13:35.213Z,515.00
2023-05-01T08:14:35.208Z,515.00
2023-05-01T08:15:35.251Z,515.00
2023-05-01T08:16:35.326Z,513.00
2023-05-01T08:17:35.208Z,513.00
2023-05-01T08:18:35.206Z,516.00
2023-05-01T08:19:35.160Z,519.00
2023-05-01T08:20:35.160Z,516.00
2023-05-01T08:21:35.155Z,512.00
2023-05-01T08:22:35.170Z,518.00
2023-05-01T08:23:35.130Z,512.00
2023-05-01T08:24:35.151Z,500.00
2023-05-01T08:25:35.121Z,511.00
2023-05-01T08:26:35.111Z,512.00
2023-05-01T08:27:35.113Z,520.00
2023-05-01T08:28:35.105Z,514.00
2023-05-01T08:29:35.104Z,523.00
2023-05-01T08:30:35.075Z,513.00
2023-05-01T08:31:35.156Z,523.00
2023-05-01T08:32:35.117Z,507.00
2023-05-01T08:33:35.084Z,518.00
2023-05-01T08:34:35.053Z,523.00
2023-05-01T08:35:35.049Z,513.00
2023-05-01T08:36:35.051Z,512.00
2023-05-01T08:37:35.049Z,510.00
2023-05-01T08:38:35.088Z,509.00
2023-05-01T08:39:35.053Z,517.00
2023-05-01T08:40:35.042Z,516.00
2023-05-01T08:41:35.026Z,509.00
2023-05-01T08:42:35.034Z,513.00
2023-05-01T08:43:35.036Z,505.00
2023-05-01T08:44:35.014Z,523.00
2023-05-01T08:45:34.997Z,506.00
2023-05-01T08:46:35.056Z,523.00
2023-05-01T08:47:35.057Z,509.00
2023-05-01T08:48:34.964Z,510.00
2023-05-01T08:49:34.966Z,520.00
2023-05-01T08:50:34.941Z,514.00
2023-05-01T08:51:34.955Z,520.00
2023-05-01T08:52:34.970Z,518.00
2023-05-01T08:53:34.941Z,507.00
2023-05-01T08:54:34.968Z,514.00
2023-05-01T08:55:34.976Z,515.00
2023-05-01T08:56:34.998Z,511.00
2023-05-01T08:57:35.015Z,514.00
2023-05-01T08:58:35.043Z,523.00
2023-05-01T08:59:35.052Z,516.00
2023-05-01T09:00:35.127Z,515.00
2023-05-01T09:01:35.121Z,513.00
2023-05-01T09:02:35.226Z,512.00
2023-05-01T09:03:35.187Z,508.00
2023-05-01T09:04:35.195Z,502.00
2023-05-01T09:05:35.206Z,518.00
2023-05-01T09:06:35.291Z,509.00
2023-05-01T09:07:35.262Z,508.00
2023-05-01T09:08:35.318Z,518.00
2023-05-01T09:09:35.288Z,516.00
2023-05-01T09:10:35.305Z,514.00
2023-05-01T09:11:35.322Z,526.00
2023-05-01T09:12:35.389Z,510.00
2023-05-01T09:13:35.378Z,518.00
2023-05-01T09:14:35.444Z,506.00
2023-05-01T09:15:35.412Z,521.00
2023-05-01T09:16:35.540Z,515.00
2023-05-01T09:17:35.504Z,525.00
2023-05-01T09:18:35.479Z,511.00
2023-05-01T09:19:35.492Z,501.00
2023-05-01T09:20:35.504Z,504.00
2023-05-01T09:21:35.527Z,513.00
2023-05-01T09:22:36.146Z,512.00
2023-05-01T09:23:35.560Z,522.00
2023-05-01T09:24:35.599Z,520.00
2023-05-01T09:25:35.600Z,506.00
2023-05-01T09:26:35.631Z,520.00
2023-05-01T09:27:35.671Z,519.00
2023-05-01T09:28:35.670Z,517.00
2023-05-01T09:29:35.672Z,507.00
2023-05-01T09:30:35.701Z,520.00
2023-05-01T09:31:35.736Z,510.00
2023-05-01T09:32:35.748Z,508.00
2023-05-01T09:33:35.751Z,511.00
2023-05-01T09:34:35.756Z,508.00
2023-05-01T09:35:35.786Z,515.00
2023-05-01T09:36:35.794Z,519.00
2023-05-01T09:37:35.826Z,517.00
2023-05-01T09:38:35.847Z,511.00
2023-05-01T09:39:35.842Z,506.00
2023-05-01T09:40:35.864Z,519.00
2023-05-01T09:41:35.896Z,522.00
2023-05-01T09:42:35.918Z,508.00
2023-05-01T09:43:35.975Z,516.00
2023-05-01T09:44:35.948Z,512.00
2023-05-01T09:45:36.046Z,519.00
2023-05-01T09:46:35.983Z,517.00
2023-05-01T09:47:35.966Z,509.00
2023-05-01T09:48:36.381Z,510.00
2023-05-01T09:49:35.977Z,519.00
2023-05-01T09:50:36.008Z,511.00
2023-05-01T09:51:35.974Z,510.00
2023-05-01T09:52:36.163Z,504.00
2023-05-01T09:53:36.023Z,521.00
2023-05-01T09:54:36.023Z,503.00
2023-05-01T09:55:36.072Z,512.00
2023-05-01T09:56:36.054Z,511.00
2023-05-01T09:57:36.078Z,511.00
2023-05-01T09:58:36.061Z,510.00
2023-05-01T09:59:36.077Z,507.00
2023-05-01T10:00:36.086Z,512.00
2023-05-01T10:01:36.099Z,519.00
2023-05-01T10:02:36.217Z,517.00
2023-05-01T10:03:36.247Z,511.00
2023-05-01T10:04:36.128Z,515.00
2023-05-01T10:05:36.116Z,523.00
2023-05-01T10:06:36.181Z,522.00
2023-05-01T10:07:36.153Z,514.00
2023-05-01T10:08:36.238Z,516.00
2023-05-01T10:09:36.153Z,509.00
2023-05-01T10:10:36.189Z,516.00
2023-05-01T10:11:36.177Z,513.00
2023-05-01T10:12:36.212Z,516.00
2023-05-01T10:13:36.247Z,519.00
2023-05-01T10:14:36.210Z,511.00
2023-05-01T10:15:36.222Z,516.00
2023-05-01T10:16:36.248Z,513.00
2023-05-01T10:17:36.319Z,513.00
2023-05-01T10:18:36.263Z,509.00
2023-05-01T10:19:36.291Z,507.00
2023-05-01T10:20:36.301Z,515.00
2023-05-01T10:21:36.398Z,512.00
2023-05-01T10:22:36.353Z,514.00
2023-05-01T10:23:36.343Z,514.00
2023-05-01T10:24:36.314Z,511.00
2023-05-01T10:25:36.346Z,517.00
2023-05-01T10:26:36.345Z,513.00
2023-05-01T10:27:36.404Z,509.00
2023-05-01T10:28:36.409Z,514.00
2023-05-01T10:29:36.374Z,517.00
2023-05-01T10:30:36.401Z,512.00
2023-05-01T10:31:36.492Z,518.00
2023-05-01T10:32:36.591Z,509.00
2023-05-01T10:33:36.496Z,517.00
2023-05-01T10:34:36.435Z,519.00
2023-05-01T10:35:36.471Z,511.00
2023-05-01T10:36:36.460Z,511.00
2023-05-01T10:37:36.704Z,511.00
2023-05-01T10:38:36.498Z,516.00
2023-05-01T10:39:36.511Z,515.00
2023-05-01T10:40:36.494Z,513.00
2023-05-01T10:41:36.490Z,516.00
2023-05-01T10:42:36.527Z,514.00
2023-05-01T10:43:36.512Z,512.00
2023-05-01T10:44:36.516Z,511.00
2023-05-01T10:45:36.544Z,511.00
2023-05-01T10:46:36.595Z,511.00
2023-05-01T10:47:36.599Z,515.00
2023-05-01T10:48:36.554Z,510.00
2023-05-01T10:49:36.546Z,514.00
2023-05-01T10:50:36.553Z,518.00
2023-05-01T10:51:36.589Z,510.00
2023-05-01T10:52:36.644Z,512.00
2023-05-01T10:53:36.597Z,516.00
2023-05-01T10:54:36.600Z,507.00
2023-05-01T10:55:36.624Z,516.00
2023-05-01T10:56:36.664Z,514.00
2023-05-01T10:57:36.639Z,516.00
2023-05-01T10:58:37.176Z,516.00
2023-05-01T10:59:36.666Z,509.00
2023-05-01T11:00:36.691Z,508.00
2023-05-01T11:01:36.840Z,525.00
2023-05-01T11:02:36.768Z,513.00
2023-05-01T11:03:36.766Z,538.00
2023-05-01T11:04:36.729Z,525.00
2023-05-01T11:05:38.645Z,532.00
2023-05-01T11:06:36.879Z,534.00
2023-05-01T11:07:36.774Z,529.00
2023-05-01T11:08:36.797Z,521.00
2023-05-01T11:09:36.797Z,522.00
2023-05-01T11:10:36.778Z,519.00
2023-05-01T11:11:36.820Z,506.00
2023-05-01T11:12:36.833Z,512.00
2023-05-01T11:13:36.858Z,514.00
2023-05-01T11:14:36.872Z,508.00
2023-05-01T11:15:36.926Z,523.00
2023-05-01T11:16:36.924Z,534.00
2023-05-01T11:17:37.018Z,542.00
2023-05-01T11:18:36.979Z,548.00
2023-05-01T11:19:36.898Z,556.00
2023-05-01T11:20:36.983Z,574.00
2023-05-01T11:21:36.947Z,582.00
2023-05-01T11:22:37.013Z,593.00
2023-05-01T11:23:36.959Z,596.00
2023-05-01T11:24:36.981Z,603.00
2023-05-01T11:25:36.963Z,598.00
2023-05-01T11:26:36.975Z,600.00
2023-05-01T11:27:37.001Z,598.00
2023-05-01T11:28:37.013Z,586.00
2023-05-01T11:29:37.051Z,587.00
2023-05-01T11:30:37.034Z,597.00
2023-05-01T11:31:37.096Z,595.00
2023-05-01T11:32:37.113Z,596.00
2023-05-01T11:33:37.053Z,591.00
2023-05-01T11:34:37.706Z,583.00
2023-05-01T11:35:37.066Z,591.00
2023-05-01T11:36:37.098Z,591.00
2023-05-01T11:37:37.126Z,595.00
2023-05-01T11:38:37.127Z,584.00
2023-05-01T11:39:37.140Z,588.00
2023-05-01T11:40:37.131Z,593.00
2023-05-01T11:41:37.164Z,592.00
2023-05-01T11:42:37.212Z,602.00
2023-05-01T11:43:37.194Z,593.00
2023-05-01T11:44:37.222Z,592.00
2023-05-01T11:45:37.576Z,590.00
2023-05-01T11:46:37.260Z,594.00
2023-05-01T11:47:37.283Z,593.00
2023-05-01T11:48:37.231Z,591.00
2023-05-01T11:49:37.242Z,587.00
2023-05-01T11:50:37.265Z,583.00
2023-05-01T11:51:37.255Z,589.00
2023-05-01T11:52:37.276Z,597.00
2023-05-01T11:53:37.321Z,590.00
2023-05-01T11:54:37.340Z,595.00
2023-05-01T11:55:37.334Z,583.00
2023-05-01T11:56:37.355Z,583.00
2023-05-01T11:57:37.373Z,591.00
2023-05-01T11:58:37.393Z,586.00
2023-05-01T11:59:37.416Z,590.00
2023-05-01T12:00:37.464Z,583.00
2023-05-01T12:01:37.429Z,583.00
2023-05-01T12:02:37.541Z,590.00
2023-05-01T12:03:37.590Z,591.00
2023-05-01T12:04:37.578Z,590.00
2023-05-01T12:05:37.597Z,591.00
2023-05-01T12:06:37.548Z,580.00
2023-05-01T12:07:37.543Z,584.00
2023-05-01T12:08:37.613Z,578.00
2023-05-01T12:09:37.567Z,583.00
2023-05-01T12:10:37.592Z,572.00
2023-05-01T12:11:37.557Z,581.00
2023-05-01T12:12:37.579Z,585.00
2023-05-01T12:13:37.582Z,580.00
2023-05-01T12:14:37.596Z,581.00
2023-05-01T12:15:37.611Z,584.00
2023-05-01T12:16:37.718Z,590.00
2023-05-01T12:17:37.700Z,590.00
2023-05-01T12:18:37.667Z,580.00
2023-05-01T12:19:37.657Z,591.00
2023-05-01T12:20:37.687Z,576.00
2023-05-01T12:21:37.650Z,585.00
2023-05-01T12:22:37.655Z,575.00
2023-05-01T12:23:37.719Z,581.00
2023-05-01T12:24:37.692Z,578.00
2023-05-01T12:25:37.689Z,571.00
2023-05-01T12:26:37.705Z,578.00
2023-05-01T12:27:37.701Z,575.00
2023-05-01T12:28:37.770Z,582.00